Time;durP1;ratioP1;P1;durP2;ratioP2;P2;SDS_P1;SDS_P2;PMS_P1;PMS_P2;Temp;Humidity;BMP_temperature;BMP_pressure;BME280_temperature;BME280_humidity;BME280_pressure;Samples;Min_cycle;Max_cycle;Signal;HPM_P1;HPM_P2
2023/01/07 00:01:34;;;;;;;37.00;17.80;;;2.10;99.90;;;;;;4993667;28;20236;-78
2023/01/07 00:04:02;;;;;;;34.23;16.83;;;2.00;99.90;;;;;;4988544;28;20291;-84
2023/01/07 00:06:32;;;;;;;35.77;17.67;;;2.10;99.90;;;;;;4986243;28;20193;-79
2023/01/07 00:08:59;;;;;;;32.17;16.87;;;2.10;99.90;;;;;;4993127;28;20197;-80
2023/01/07 00:11:37;;;;;;;34.83;17.80;;;2.10;99.90;;;;;;4973688;28;20225;-76
2023/01/07 00:14:06;;;;;;;35.67;18.43;;;2.10;99.90;;;;;;4976877;28;20561;-83
2023/01/07 00:16:34;;;;;;;33.83;16.67;;;2.10;99.90;;;;;;4993397;28;20225;-83
2023/01/07 00:19:03;;;;;;;34.87;17.67;;;2.10;99.90;;;;;;4989163;28;20200;-83
2023/01/07 00:21:30;;;;;;;37.40;18.33;;;2.10;99.90;;;;;;4976487;28;20208;-84
2023/01/07 00:23:59;;;;;;;34.07;17.13;;;2.20;99.90;;;;;;4977177;28;20197;-83
2023/01/07 00:26:31;;;;;;;33.23;17.27;;;2.20;99.90;;;;;;4987853;28;20210;-78
2023/01/07 00:28:58;;;;;;;35.73;17.43;;;2.20;99.90;;;;;;4976933;28;20272;-78
2023/01/07 00:31:29;;;;;;;35.57;17.87;;;2.30;99.90;;;;;;4994366;28;20201;-79
2023/01/07 00:36:25;;;;;;;39.63;18.80;;;2.30;99.90;;;;;;4991737;28;20310;-78
2023/01/07 00:38:59;;;;;;;40.60;18.77;;;2.30;99.90;;;;;;4976548;28;20195;-83
2023/01/07 00:41:27;;;;;;;42.43;19.83;;;2.40;99.90;;;;;;4994243;28;20204;-77
2023/01/07 00:43:55;;;;;;;45.63;20.00;;;2.40;99.90;;;;;;4991850;28;20280;-81
2023/01/07 00:46:22;;;;;;;45.37;20.27;;;2.50;99.90;;;;;;4992816;28;20247;-79
2023/01/07 00:48:49;;;;;;;50.10;19.90;;;2.50;99.90;;;;;;4994674;28;20646;-79
2023/01/07 00:51:17;;;;;;;51.60;20.10;;;2.40;99.90;;;;;;4994392;28;20197;-78
2023/01/07 00:53:44;;;;;;;57.10;21.77;;;2.40;99.90;;;;;;4976601;28;20204;-77
2023/01/07 00:56:13;;;;;;;54.03;20.17;;;2.40;99.90;;;;;;4992526;28;20332;-78
2023/01/07 00:58:40;;;;;;;62.70;23.63;;;2.40;99.90;;;;;;4992878;28;20243;-78
2023/01/07 01:01:09;;;;;;;56.07;21.40;;;2.40;99.90;;;;;;4993002;28;20213;-81
2023/01/07 01:03:37;;;;;;;63.20;22.17;;;2.40;99.90;;;;;;4992513;28;20267;-77
2023/01/07 01:06:06;;;;;;;60.57;21.93;;;2.50;99.90;;;;;;4957479;28;20651;-80
2023/01/07 01:08:33;;;;;;;57.37;22.33;;;2.60;99.90;;;;;;4975335;28;20248;-82
2023/01/07 01:11:09;;;;;;;59.27;22.87;;;2.70;99.90;;;;;;4973641;28;20351;-78
2023/01/07 01:13:36;;;;;;;59.10;22.00;;;2.80;99.90;;;;;;4974948;28;20185;-82
2023/01/07 01:16:12;;;;;;;61.43;22.90;;;2.90;99.90;;;;;;4984915;28;20705;-81
2023/01/07 01:18:39;;;;;;;58.73;21.67;;;2.80;99.90;;;;;;4975278;28;20288;-81
2023/01/07 01:21:09;;;;;;;61.97;23.13;;;2.90;99.90;;;;;;4992462;28;20296;-80
2023/01/07 01:23:37;;;;;;;74.33;23.60;;;2.80;99.90;;;;;;4976537;28;20517;-84
2023/01/07 01:26:09;;;;;;;65.63;22.40;;;2.90;99.90;;;;;;4992354;28;20205;-84
2023/01/07 01:28:37;;;;;;;74.70;23.93;;;2.80;99.90;;;;;;4993777;28;20223;-88
2023/01/07 01:31:04;;;;;;;59.90;22.83;;;2.70;99.90;;;;;;4960290;28;20225;-88
2023/01/07 01:33:31;;;;;;;69.90;24.67;;;2.80;99.90;;;;;;4992483;28;20532;-87
2023/01/07 01:35:58;;;;;;;68.87;23.43;;;2.80;99.90;;;;;;4975786;28;20307;-83
2023/01/07 01:38:24;;;;;;;66.60;23.80;;;2.80;99.90;;;;;;4976112;28;20201;-83
2023/01/07 01:40:51;;;;;;;67.73;24.03;;;2.80;99.90;;;;;;4976107;28;20558;-81
2023/01/07 01:43:29;;;;;;;65.97;24.87;;;2.90;99.90;;;;;;4992576;28;20652;-84
2023/01/07 01:46:04;;;;;;;65.87;24.70;;;2.90;99.90;;;;;;4992106;28;20224;-82
2023/01/07 01:48:34;;;;;;;67.40;24.27;;;3.10;99.90;;;;;;4988660;28;20201;-84
2023/01/07 01:51:02;;;;;;;70.37;24.27;;;3.00;99.90;;;;;;4989204;28;20264;-83
2023/01/07 01:53:32;;;;;;;72.13;25.03;;;3.10;99.90;;;;;;4972838;28;20293;-78
2023/01/07 01:56:09;;;;;;;72.83;25.57;;;3.10;99.90;;;;;;4988762;28;20252;-82
2023/01/07 01:58:40;;;;;;;69.67;26.23;;;3.10;99.90;;;;;;4973981;28;20189;-84
2023/01/07 02:01:08;;;;;;;81.70;26.90;;;3.20;99.90;;;;;;4972526;28;20208;-86
2023/01/07 02:03:37;;;;;;;65.97;25.63;;;3.30;99.90;;;;;;4956926;28;20245;-83
2023/01/07 02:06:11;;;;;;;72.77;26.03;;;3.30;99.90;;;;;;4956319;28;20206;-85
2023/01/07 02:08:38;;;;;;;69.20;25.20;;;3.30;99.90;;;;;;4972547;28;20209;-83
2023/01/07 02:11:50;;;;;;;73.60;26.00;;;3.40;99.90;;;;;;4972827;28;20204;-83
2023/01/07 02:14:26;;;;;;;69.53;25.50;;;3.30;99.90;;;;;;4958698;28;20262;-78
2023/01/07 02:17:10;;;;;;;71.00;25.70;;;3.20;99.90;;;;;;4989001;28;20264;-79
2023/01/07 02:20:03;;;;;;;73.70;25.40;;;3.20;99.90;;;;;;4992063;28;20193;-83
2023/01/07 02:23:04;;;;;;;81.43;27.53;;;3.30;99.90;;;;;;4956936;28;20217;-79
2023/01/07 02:26:30;;;;;;;81.97;27.20;;;3.30;99.90;;;;;;4972241;28;20208;-84
2023/01/07 02:29:21;;;;;;;76.20;26.63;;;3.40;99.90;;;;;;4901205;29;20198;-82
2023/01/07 02:32:18;;;;;;;66.50;25.47;;;3.40;99.90;;;;;;4895457;29;20295;-85
2023/01/07 02:35:04;;;;;;;69.63;25.97;;;3.50;99.90;;;;;;4842198;29;20296;-83
2023/01/07 02:37:52;;;;;;;75.07;24.93;;;3.50;99.90;;;;;;4842680;29;20321;-83
2023/01/07 02:40:29;;;;;;;74.70;26.10;;;3.50;99.90;;;;;;4842629;29;20215;-82
2023/01/07 02:43:29;;;;;;;74.87;25.87;;;3.50;99.90;;;;;;4858268;29;20213;-81
2023/01/07 02:46:22;;;;;;;72.67;25.23;;;3.50;99.90;;;;;;4860713;29;20756;-84
2023/01/07 02:48:50;;;;;;;74.20;26.27;;;3.50;99.90;;;;;;4877484;29;20204;-84
2023/01/07 02:51:17;;;;;;;74.27;26.67;;;3.60;99.90;;;;;;4864271;29;20211;-82
2023/01/07 02:53:47;;;;;;;77.50;27.27;;;3.60;99.90;;;;;;4879918;29;20209;-85
2023/01/07 02:56:26;;;;;;;66.37;24.93;;;3.70;99.90;;;;;;4848519;29;20598;-84
2023/01/07 02:59:01;;;;;;;67.40;24.90;;;3.70;99.90;;;;;;4861404;29;20617;-79
2023/01/07 03:01:36;;;;;;;73.73;25.23;;;3.70;99.90;;;;;;4861000;29;20297;-83
2023/01/07 03:04:03;;;;;;;70.00;24.13;;;3.70;99.90;;;;;;4877126;29;20220;-80
2023/01/07 03:06:54;;;;;;;70.13;25.83;;;3.70;99.90;;;;;;4882578;29;20236;-84
2023/01/07 03:09:38;;;;;;;66.17;25.27;;;3.80;99.90;;;;;;4867096;29;20617;-82
2023/01/07 03:12:20;;;;;;;70.33;25.20;;;3.70;99.90;;;;;;4949442;28;20275;-80
2023/01/07 03:14:56;;;;;;;71.60;25.50;;;3.70;99.90;;;;;;4975322;28;20569;-84
2023/01/07 03:17:35;;;;;;;72.20;25.07;;;3.70;99.90;;;;;;4959541;28;20233;-80
2023/01/07 03:20:04;;;;;;;72.50;26.00;;;3.70;99.90;;;;;;4975473;28;20201;-85
2023/01/07 03:22:33;;;;;;;84.90;26.23;;;3.70;99.90;;;;;;4975832;28;20293;-82
2023/01/07 03:25:02;;;;;;;69.57;23.90;;;3.70;99.90;;;;;;4959097;28;20643;-81
2023/01/07 03:27:32;;;;;;;65.70;24.63;;;3.70;99.90;;;;;;4975677;28;20683;-79
2023/01/07 03:30:04;;;;;;;72.30;24.47;;;3.70;99.90;;;;;;4959830;28;20193;-85
2023/01/07 03:32:53;;;;;;;76.50;25.20;;;3.70;99.90;;;;;;4975730;28;20210;-79
2023/01/07 03:35:22;;;;;;;70.20;24.50;;;3.70;99.90;;;;;;4958544;28;20225;-78
2023/01/07 03:37:50;;;;;;;66.00;24.10;;;3.70;99.90;;;;;;4974926;28;20222;-80
2023/01/07 03:40:19;;;;;;;70.27;24.80;;;3.70;99.90;;;;;;4975514;28;20220;-85
2023/01/07 03:42:47;;;;;;;65.07;23.77;;;3.70;99.90;;;;;;4977427;28;20198;-81
2023/01/07 03:45:23;;;;;;;65.93;23.70;;;3.70;99.90;;;;;;4958903;28;20286;-80
2023/01/07 03:47:53;;;;;;;64.20;22.67;;;3.60;99.90;;;;;;4974849;28;20201;-78
2023/01/07 03:50:21;;;;;;;62.50;23.47;;;3.70;99.90;;;;;;4976760;28;20209;-82
2023/01/07 03:52:49;;;;;;;78.73;25.03;;;3.70;99.90;;;;;;4974544;28;20205;-80
2023/01/07 03:55:17;;;;;;;71.53;24.63;;;3.60;99.90;;;;;;4979639;28;20222;-84
2023/01/07 03:57:45;;;;;;;101.23;24.67;;;3.60;99.90;;;;;;4975707;28;20217;-80
2023/01/07 04:00:14;;;;;;;69.50;23.47;;;3.60;99.90;;;;;;4979324;28;20704;-81
2023/01/07 04:02:42;;;;;;;85.13;24.60;;;3.70;99.90;;;;;;4991026;28;20245;-84
2023/01/07 04:05:10;;;;;;;67.03;23.67;;;3.60;99.90;;;;;;4974054;28;20202;-79
2023/01/07 04:07:37;;;;;;;79.60;24.03;;;3.70;99.90;;;;;;4975987;28;20217;-80
2023/01/07 04:10:06;;;;;;;69.67;23.97;;;3.70;99.90;;;;;;4990636;28;20249;-78
2023/01/07 04:12:33;;;;;;;62.03;22.97;;;3.70;99.90;;;;;;4976235;28;20203;-79
2023/01/07 04:15:00;;;;;;;67.57;24.67;;;3.80;99.90;;;;;;4976107;28;20472;-80
2023/01/07 04:17:27;;;;;;;66.80;24.73;;;3.80;99.90;;;;;;4977015;28;20221;-84
2023/01/07 04:19:54;;;;;;;60.40;23.17;;;3.80;99.90;;;;;;4975916;28;20193;-84
2023/01/07 04:22:21;;;;;;;60.00;22.60;;;3.70;99.90;;;;;;4974502;28;20216;-79
2023/01/07 04:24:47;;;;;;;58.93;22.93;;;3.80;99.90;;;;;;4985304;28;20204;-81
2023/01/07 04:27:15;;;;;;;69.03;24.40;;;3.80;99.90;;;;;;4991041;28;20201;-84
2023/01/07 04:29:41;;;;;;;60.90;23.53;;;3.80;99.90;;;;;;4974232;28;20288;-84
2023/01/07 04:32:08;;;;;;;55.10;22.53;;;3.90;99.90;;;;;;4974138;28;20222;-84
2023/01/07 04:34:35;;;;;;;57.53;21.80;;;3.90;99.90;;;;;;4975042;28;20323;-84
2023/01/07 04:37:02;;;;;;;57.67;22.77;;;3.80;99.90;;;;;;4973962;28;20242;-84
2023/01/07 04:39:29;;;;;;;57.27;22.23;;;3.90;99.90;;;;;;4975488;28;20552;-83
2023/01/07 04:41:56;;;;;;;52.53;21.50;;;3.80;99.90;;;;;;4975537;28;20267;-83
2023/01/07 04:44:22;;;;;;;56.13;22.33;;;3.80;99.90;;;;;;4973997;28;20196;-83
2023/01/07 04:46:49;;;;;;;53.83;22.03;;;3.80;99.90;;;;;;4990116;28;20290;-77
2023/01/07 04:49:16;;;;;;;58.43;22.10;;;3.90;99.90;;;;;;4989947;28;20206;-79
2023/01/07 04:51:43;;;;;;;50.93;20.93;;;4.00;99.90;;;;;;4990452;28;20213;-78
2023/01/07 04:54:10;;;;;;;52.57;21.67;;;4.00;99.90;;;;;;4973873;28;20204;-81
2023/01/07 04:56:37;;;;;;;48.93;20.03;;;4.10;99.90;;;;;;4994137;28;20245;-80
2023/01/07 04:59:04;;;;;;;48.33;21.27;;;4.00;99.90;;;;;;4977100;28;20189;-78
2023/01/07 05:01:31;;;;;;;46.60;20.37;;;4.00;99.90;;;;;;4994147;28;20208;-84
2023/01/07 05:03:58;;;;;;;51.33;20.40;;;4.00;99.90;;;;;;4993838;28;20204;-78
2023/01/07 05:06:25;;;;;;;47.27;20.87;;;3.90;99.90;;;;;;4994164;28;20206;-83
2023/01/07 05:08:52;;;;;;;48.33;19.50;;;3.70;99.90;;;;;;4975826;28;20201;-78
2023/01/07 05:11:20;;;;;;;49.30;20.97;;;3.80;99.90;;;;;;4993017;28;20202;-79
2023/01/07 05:13:48;;;;;;;45.00;19.83;;;3.70;99.90;;;;;;4992909;28;20197;-82
2023/01/07 05:16:15;;;;;;;46.43;19.40;;;3.70;99.90;;;;;;4994098;28;20213;-79
2023/01/07 05:18:43;;;;;;;49.90;20.23;;;3.70;99.90;;;;;;4976954;28;20543;-79
2023/01/07 05:21:10;;;;;;;44.00;19.67;;;3.70;99.90;;;;;;4993824;28;20204;-82
2023/01/07 05:23:37;;;;;;;46.50;20.00;;;3.70;99.90;;;;;;4994144;28;20201;-82
2023/01/07 05:26:04;;;;;;;46.03;19.60;;;3.60;99.90;;;;;;4976401;28;20565;-79
2023/01/07 05:28:31;;;;;;;49.80;19.77;;;3.70;99.90;;;;;;4992730;28;20203;-79
2023/01/07 05:30:57;;;;;;;47.27;20.67;;;3.70;99.90;;;;;;4993214;28;20201;-78
2023/01/07 05:33:24;;;;;;;46.73;19.97;;;3.80;99.90;;;;;;4976568;28;20197;-78
2023/01/07 05:35:51;;;;;;;51.20;21.10;;;3.80;99.90;;;;;;4993612;28;20219;-83
2023/01/07 05:38:18;;;;;;;48.40;20.00;;;3.80;99.90;;;;;;4976594;28;20237;-82
2023/01/07 05:40:48;;;;;;;47.37;19.37;;;3.80;99.90;;;;;;4992542;28;20204;-82
2023/01/07 05:43:16;;;;;;;41.17;18.80;;;3.90;99.90;;;;;;4993571;28;20209;-83
2023/01/07 05:45:44;;;;;;;44.37;18.80;;;4.00;99.90;;;;;;4976043;28;20287;-82
2023/01/07 05:48:12;;;;;;;44.37;19.10;;;3.90;99.90;;;;;;4976268;28;21149;-82
2023/01/07 05:50:39;;;;;;;41.83;18.57;;;4.00;99.90;;;;;;4976445;28;20196;-79
2023/01/07 05:53:06;;;;;;;37.93;18.03;;;4.00;99.90;;;;;;4993259;28;20193;-80
2023/01/07 05:55:37;;;;;;;39.67;18.97;;;4.10;99.90;;;;;;4992637;28;20592;-82
2023/01/07 05:58:04;;;;;;;40.07;18.50;;;4.10;99.90;;;;;;4992733;28;20232;-79
2023/01/07 06:00:31;;;;;;;44.37;17.67;;;4.20;99.90;;;;;;4993740;28;20200;-82
2023/01/07 06:02:58;;;;;;;42.77;17.80;;;4.20;99.90;;;;;;4978160;28;20208;-79
2023/01/07 06:05:25;;;;;;;40.13;18.83;;;4.20;99.90;;;;;;4992725;28;20200;-84
2023/01/07 06:07:54;;;;;;;43.47;18.47;;;4.20;99.90;;;;;;4976966;28;20288;-84
2023/01/07 06:10:22;;;;;;;41.90;18.10;;;4.20;99.90;;;;;;4976444;28;20591;-85
2023/01/07 06:12:50;;;;;;;42.07;18.30;;;4.30;99.90;;;;;;4976624;28;20209;-82
2023/01/07 06:15:17;;;;;;;37.30;17.00;;;4.20;99.90;;;;;;4992468;28;20205;-87
2023/01/07 06:17:44;;;;;;;38.27;17.27;;;4.10;99.90;;;;;;4976412;28;20582;-85
2023/01/07 06:20:13;;;;;;;39.97;17.57;;;4.10;99.90;;;;;;4995470;28;20204;-84
2023/01/07 06:22:42;;;;;;;40.03;18.33;;;4.10;99.90;;;;;;4996842;28;20292;-86
2023/01/07 06:25:10;;;;;;;36.50;16.60;;;4.20;99.90;;;;;;4996735;28;20208;-86
2023/01/07 06:27:39;;;;;;;42.60;17.53;;;4.10;99.90;;;;;;4997682;28;20197;-84
2023/01/07 06:30:08;;;;;;;41.57;17.70;;;4.20;99.90;;;;;;4997497;28;20259;-80
2023/01/07 06:32:39;;;;;;;36.67;16.93;;;4.20;99.90;;;;;;4997356;28;20317;-85
2023/01/07 06:35:08;;;;;;;41.87;17.70;;;4.30;99.90;;;;;;4997169;28;20541;-86
2023/01/07 06:37:36;;;;;;;39.60;17.53;;;4.30;99.90;;;;;;4980300;28;20593;-79
2023/01/07 06:40:03;;;;;;;43.37;19.63;;;4.40;99.90;;;;;;5003753;28;20194;-85
2023/01/07 06:42:30;;;;;;;46.10;19.93;;;4.40;99.90;;;;;;5005948;28;20279;-81
2023/01/07 06:44:57;;;;;;;47.10;19.43;;;4.40;99.90;;;;;;5002601;28;20196;-84
2023/01/07 06:47:24;;;;;;;43.97;19.47;;;4.30;99.90;;;;;;4997042;28;20258;-86
2023/01/07 06:49:52;;;;;;;45.80;19.33;;;4.40;99.90;;;;;;4980428;28;20199;-81
2023/01/07 06:52:19;;;;;;;46.87;20.07;;;4.30;99.90;;;;;;4979705;28;20201;-86
2023/01/07 06:54:46;;;;;;;44.57;18.57;;;4.30;99.90;;;;;;4997218;28;20316;-87
2023/01/07 06:57:14;;;;;;;42.87;18.80;;;4.30;99.90;;;;;;4995863;28;20234;-79
2023/01/07 06:59:41;;;;;;;42.73;19.43;;;4.20;99.90;;;;;;4980674;28;20203;-84
2023/01/07 07:02:17;;;;;;;40.03;18.27;;;4.20;99.90;;;;;;4997289;28;20636;-86
2023/01/07 07:04:44;;;;;;;43.50;19.20;;;4.10;99.90;;;;;;4997824;28;20620;-85
2023/01/07 07:07:11;;;;;;;42.77;18.97;;;4.10;99.90;;;;;;4996572;28;20252;-87
2023/01/07 07:09:38;;;;;;;40.30;18.40;;;4.10;99.90;;;;;;5013477;28;20293;-86
2023/01/07 07:12:06;;;;;;;41.70;19.93;;;4.10;99.90;;;;;;4997639;28;20185;-83
2023/01/07 07:14:33;;;;;;;43.13;19.33;;;4.10;99.90;;;;;;4997246;28;20205;-81
2023/01/07 07:17:01;;;;;;;45.30;20.07;;;4.10;99.90;;;;;;4995903;28;20214;-86
2023/01/07 07:19:28;;;;;;;43.97;19.53;;;4.10;99.90;;;;;;4997061;28;20243;-83
2023/01/07 07:21:58;;;;;;;38.53;17.93;;;4.10;99.90;;;;;;5012733;28;20193;-90
2023/01/07 07:24:25;;;;;;;43.07;19.00;;;4.00;99.90;;;;;;4995747;28;20205;-88
2023/01/07 07:26:52;;;;;;;41.63;18.83;;;4.00;99.90;;;;;;4979035;28;20237;-89
2023/01/07 07:29:19;;;;;;;45.13;20.53;;;4.00;99.90;;;;;;5011813;28;20252;-81
2023/01/07 07:31:47;;;;;;;42.13;19.13;;;3.90;99.90;;;;;;4978966;28;20193;-80
2023/01/07 07:34:14;;;;;;;44.33;19.90;;;4.00;99.90;;;;;;4994904;28;20324;-83
2023/01/07 07:36:41;;;;;;;45.83;19.93;;;4.00;99.90;;;;;;4996691;28;20600;-81
2023/01/07 07:39:09;;;;;;;45.80;19.37;;;4.00;99.90;;;;;;4978693;28;20261;-84
2023/01/07 07:41:36;;;;;;;41.97;18.67;;;4.10;99.90;;;;;;4996238;28;20189;-80
2023/01/07 07:44:04;;;;;;;47.90;20.57;;;4.20;99.90;;;;;;4996065;28;20193;-77
2023/01/07 07:46:32;;;;;;;45.23;19.57;;;4.10;99.90;;;;;;4994788;28;20198;-80
2023/01/07 07:48:59;;;;;;;44.27;19.40;;;4.20;99.90;;;;;;4978614;28;20204;-86
2023/01/07 07:51:26;;;;;;;41.03;17.67;;;4.20;99.90;;;;;;4978588;28;20196;-85
2023/01/07 07:53:53;;;;;;;38.97;17.70;;;4.20;99.90;;;;;;4994875;28;20188;-86
2023/01/07 07:56:20;;;;;;;40.17;16.40;;;4.20;99.90;;;;;;5010766;28;20230;-84
2023/01/07 07:58:47;;;;;;;35.50;15.67;;;4.40;99.90;;;;;;4978465;28;20328;-78
2023/01/07 08:01:14;;;;;;;28.53;14.30;;;4.40;99.90;;;;;;4995274;28;20207;-81
2023/01/07 08:03:41;;;;;;;32.00;15.00;;;4.40;99.90;;;;;;4997500;28;20667;-89
2023/01/07 08:06:11;;;;;;;34.43;14.87;;;4.50;99.90;;;;;;4996153;28;20195;-83
2023/01/07 08:08:44;;;;;;;29.47;13.87;;;4.50;99.90;;;;;;4995495;28;20188;-78
2023/01/07 08:11:11;;;;;;;32.50;14.27;;;4.60;99.90;;;;;;4996988;28;20198;-90
2023/01/07 08:13:38;;;;;;;30.13;13.97;;;4.70;99.90;;;;;;4996238;28;20194;-87
2023/01/07 08:16:05;;;;;;;28.63;14.40;;;4.70;99.90;;;;;;5010067;28;20199;-77
2023/01/07 08:18:32;;;;;;;29.00;14.87;;;4.80;99.90;;;;;;4977487;28;20251;-83
2023/01/07 08:20:59;;;;;;;30.87;14.80;;;4.80;99.90;;;;;;4993766;28;20202;-80
2023/01/07 08:23:27;;;;;;;32.03;13.77;;;4.80;99.90;;;;;;4994249;28;20206;-87
2023/01/07 08:26:01;;;;;;;28.70;13.87;;;4.80;99.90;;;;;;5010273;28;20714;-89
2023/01/07 08:28:32;;;;;;;27.50;14.17;;;5.00;99.90;;;;;;4996769;28;20186;-86
2023/01/07 08:31:04;;;;;;;32.53;15.40;;;4.90;99.90;;;;;;4978000;28;20208;-84
2023/01/07 08:33:36;;;;;;;32.13;15.23;;;5.00;99.90;;;;;;4993879;28;20207;-87
2023/01/07 08:36:05;;;;;;;29.23;14.07;;;4.90;99.90;;;;;;5010425;28;20213;-91
2023/01/07 08:38:35;;;;;;;27.93;14.10;;;5.00;99.90;;;;;;4996067;28;20316;-84
2023/01/07 08:41:02;;;;;;;33.47;15.77;;;5.10;99.90;;;;;;4978065;28;20257;-87
2023/01/07 08:43:29;;;;;;;31.07;14.63;;;5.10;99.90;;;;;;4986635;28;20232;-80
2023/01/07 08:45:56;;;;;;;29.57;14.50;;;5.20;99.90;;;;;;4990475;28;20185;-77
2023/01/07 08:48:23;;;;;;;35.27;16.27;;;5.30;99.90;;;;;;4976788;28;20208;-76
2023/01/07 08:50:52;;;;;;;30.27;15.10;;;5.30;99.90;;;;;;4993313;28;20214;-76
2023/01/07 08:53:20;;;;;;;30.40;15.00;;;5.30;99.90;;;;;;4977017;28;20194;-82
2023/01/07 08:55:49;;;;;;;31.07;14.03;;;5.40;99.90;;;;;;4983464;28;20233;-90
2023/01/07 08:58:17;;;;;;;30.43;14.40;;;5.40;99.90;;;;;;4975463;28;20566;-87
2023/01/07 09:00:52;;;;;;;26.20;13.87;;;5.50;99.90;;;;;;4974416;28;20194;-87
2023/01/07 09:03:22;;;;;;;27.17;13.90;;;5.60;99.90;;;;;;4977667;28;20202;-85
2023/01/07 09:05:51;;;;;;;26.37;13.50;;;5.60;99.90;;;;;;4983589;28;20240;-89
2023/01/07 09:08:25;;;;;;;26.97;13.47;;;5.60;99.90;;;;;;4977136;28;20190;-86
2023/01/07 09:10:52;;;;;;;26.87;13.43;;;5.70;99.90;;;;;;4975620;28;20232;-84
2023/01/07 09:13:22;;;;;;;26.03;13.50;;;5.80;99.90;;;;;;4977263;28;20203;-76
2023/01/07 09:15:52;;;;;;;29.37;13.07;;;5.70;99.90;;;;;;4974938;28;20677;-74
2023/01/07 09:18:19;;;;;;;25.83;13.80;;;5.80;99.90;;;;;;4972847;28;20241;-83
2023/01/07 09:20:47;;;;;;;27.87;13.73;;;5.80;99.90;;;;;;4989682;28;20202;-83
2023/01/07 09:23:14;;;;;;;29.63;14.03;;;5.90;99.90;;;;;;4973254;28;20289;-75
2023/01/07 09:25:41;;;;;;;33.13;14.90;;;5.70;99.90;;;;;;4970462;28;20307;-74
2023/01/07 09:28:08;;;;;;;30.50;14.37;;;5.70;99.90;;;;;;4989327;28;20197;-79
2023/01/07 09:30:36;;;;;;;29.33;14.83;;;5.70;99.90;;;;;;4974983;28;20198;-75
2023/01/07 09:33:03;;;;;;;32.47;15.70;;;5.70;99.90;;;;;;4989877;28;20287;-77
2023/01/07 09:35:46;;;;;;;32.37;15.47;;;5.70;99.90;;;;;;4992133;28;20278;-78
2023/01/07 09:38:13;;;;;;;31.93;15.50;;;5.70;99.90;;;;;;4964274;28;20275;-76
2023/01/07 09:40:42;;;;;;;31.70;15.43;;;5.90;99.90;;;;;;4969292;28;20233;-76
2023/01/07 09:43:33;;;;;;;32.90;15.97;;;5.70;99.90;;;;;;4954629;28;20227;-73
2023/01/07 09:46:21;;;;;;;33.87;16.00;;;5.70;99.90;;;;;;4958226;28;20201;-76
2023/01/07 09:48:56;;;;;;;33.23;15.70;;;5.70;99.90;;;;;;4978315;28;20257;-73
2023/01/07 09:51:42;;;;;;;33.30;15.97;;;5.60;99.90;;;;;;4969717;28;20213;-85
2023/01/07 09:54:42;;;;;;;31.67;15.57;;;5.80;99.90;;;;;;4972309;28;20201;-85
2023/01/07 09:57:16;;;;;;;35.37;16.27;;;5.70;99.90;;;;;;4918879;29;20642;-81
2023/01/07 09:59:44;;;;;;;37.43;16.83;;;5.80;99.90;;;;;;4918753;29;20634;-87
2023/01/07 10:02:43;;;;;;;35.57;16.67;;;5.80;99.90;;;;;;4918438;29;20664;-78
2023/01/07 10:05:12;;;;;;;37.77;16.87;;;5.80;99.90;;;;;;4918427;29;20208;-79
2023/01/07 10:07:50;;;;;;;35.83;16.73;;;5.70;99.90;;;;;;4925986;29;20235;-83
2023/01/07 10:10:40;;;;;;;33.63;16.97;;;5.80;99.90;;;;;;4941028;29;20293;-85
2023/01/07 10:13:28;;;;;;;35.67;16.13;;;5.80;99.90;;;;;;4921126;29;20200;-77
2023/01/07 10:16:10;;;;;;;35.10;17.03;;;6.00;99.90;;;;;;4936531;29;20250;-79
2023/01/07 10:18:51;;;;;;;37.43;17.47;;;6.10;99.90;;;;;;4922058;29;20243;-82
2023/01/07 10:21:36;;;;;;;35.63;16.97;;;6.10;99.90;;;;;;4937281;29;20198;-77
2023/01/07 10:24:12;;;;;;;34.87;17.43;;;6.10;99.90;;;;;;4921648;29;20250;-87
2023/01/07 10:26:45;;;;;;;32.43;16.37;;;6.10;99.90;;;;;;4921117;29;20205;-80
2023/01/07 10:29:15;;;;;;;35.77;16.23;;;6.20;99.90;;;;;;4938138;29;20219;-84
2023/01/07 10:31:44;;;;;;;37.50;17.23;;;6.30;99.90;;;;;;4938706;28;20683;-83
2023/01/07 10:34:26;;;;;;;32.67;16.03;;;6.30;99.90;;;;;;4988282;28;20205;-86
2023/01/07 10:37:09;;;;;;;33.37;17.87;;;6.30;99.90;;;;;;4981726;28;20612;-86
2023/01/07 10:39:51;;;;;;;35.23;16.80;;;6.50;99.90;;;;;;4971765;28;20298;-77
2023/01/07 10:42:34;;;;;;;34.30;17.63;;;6.50;99.90;;;;;;4989689;28;20269;-87
2023/01/07 10:45:39;;;;;;;34.50;17.30;;;6.60;99.90;;;;;;4976527;28;20298;-94
2023/01/07 10:48:29;;;;;;;32.87;16.53;;;6.60;99.90;;;;;;4919243;29;20741;-92
2023/01/07 10:51:22;;;;;;;31.20;16.10;;;6.80;99.90;;;;;;4917573;29;20672;-85
2023/01/07 10:54:01;;;;;;;32.70;15.67;;;7.00;99.90;;;;;;4917726;29;20211;-84
2023/01/07 10:56:34;;;;;;;28.17;14.80;;;7.00;99.90;;;;;;4917333;29;20811;-80
2023/01/07 10:59:03;;;;;;;26.43;14.70;;;7.00;99.90;;;;;;4917628;29;20300;-83
2023/01/07 11:01:37;;;;;;;30.30;15.70;;;6.90;99.90;;;;;;4918015;29;20221;-84
2023/01/07 11:04:13;;;;;;;31.10;15.40;;;7.00;99.90;;;;;;4917933;29;20206;-83
2023/01/07 11:06:45;;;;;;;33.10;15.93;;;7.10;99.90;;;;;;4917348;29;20565;-85
2023/01/07 11:09:19;;;;;;;30.30;15.30;;;7.20;99.90;;;;;;4902167;29;20301;-79
2023/01/07 11:11:47;;;;;;;30.73;15.73;;;7.30;99.90;;;;;;4918089;29;20990;-82
2023/01/07 11:14:27;;;;;;;32.70;15.73;;;7.50;99.90;;;;;;4918287;29;20204;-83
2023/01/07 11:17:22;;;;;;;26.60;14.00;;;7.70;99.90;;;;;;4901434;29;20296;-79
2023/01/07 11:19:51;;;;;;;26.57;14.23;;;7.60;99.90;;;;;;4918416;29;20232;-81
2023/01/07 11:22:28;;;;;;;26.30;14.10;;;7.60;99.90;;;;;;4919825;29;20227;-83
2023/01/07 11:24:56;;;;;;;28.33;15.47;;;7.50;99.90;;;;;;4929324;28;20579;-80
2023/01/07 11:27:30;;;;;;;28.00;14.30;;;7.60;99.90;;;;;;4981916;28;20295;-80
2023/01/07 11:30:31;;;;;;;28.73;14.70;;;7.70;99.90;;;;;;4975384;28;20199;-87
2023/01/07 11:33:04;;;;;;;27.13;14.37;;;7.60;99.90;;;;;;4959467;28;20200;-78
2023/01/07 11:35:34;;;;;;;26.53;14.27;;;7.70;99.90;;;;;;4975329;28;20275;-82
2023/01/07 11:38:00;;;;;;;27.23;15.00;;;7.60;99.90;;;;;;4959147;28;20276;-88
2023/01/07 11:40:30;;;;;;;27.37;14.83;;;7.70;99.90;;;;;;4974974;28;20204;-84
2023/01/07 11:43:17;;;;;;;26.13;13.87;;;7.70;99.90;;;;;;4959091;28;20545;-78
2023/01/07 11:45:50;;;;;;;24.87;14.27;;;7.60;99.90;;;;;;4975526;28;20303;-83
2023/01/07 11:48:45;;;;;;;27.00;13.60;;;7.70;99.90;;;;;;4976557;28;20222;-79
2023/01/07 11:51:12;;;;;;;25.80;14.13;;;7.90;99.90;;;;;;4959447;28;20237;-82
2023/01/07 11:53:48;;;;;;;26.33;14.97;;;7.90;99.90;;;;;;4977061;28;20672;-82
2023/01/07 11:56:27;;;;;;;25.93;13.80;;;8.20;99.90;;;;;;4958404;28;20283;-82
2023/01/07 11:59:24;;;;;;;25.47;13.67;;;8.30;99.90;;;;;;4975083;28;20312;-81
2023/01/07 12:01:54;;;;;;;26.80;13.63;;;8.70;99.90;;;;;;4974839;28;20249;-78
2023/01/07 12:04:35;;;;;;;25.30;13.07;;;8.80;99.90;;;;;;4974551;28;20186;-78
2023/01/07 12:07:12;;;;;;;23.50;12.83;;;8.90;99.90;;;;;;4958349;28;20243;-82
2023/01/07 12:09:42;;;;;;;23.67;13.10;;;9.10;99.90;;;;;;4976067;28;20276;-82
2023/01/07 12:12:38;;;;;;;21.70;11.90;;;9.00;99.90;;;;;;4974906;28;20215;-78
2023/01/07 12:15:18;;;;;;;23.30;11.77;;;9.00;99.90;;;;;;4958644;28;20550;-82
2023/01/07 12:18:14;;;;;;;24.00;12.30;;;8.90;99.90;;;;;;4973788;28;20582;-85
2023/01/07 12:21:02;;;;;;;24.70;11.93;;;8.90;99.90;;;;;;4958116;28;20206;-78
2023/01/07 12:23:29;;;;;;;25.77;13.17;;;8.80;99.90;;;;;;4975797;28;20214;-81
2023/01/07 12:26:34;;;;;;;22.87;13.10;;;8.70;99.90;;;;;;4975864;28;20511;-85
2023/01/07 12:29:34;;;;;;;23.57;12.53;;;8.50;99.90;;;;;;4897255;29;20291;-86
2023/01/07 12:32:29;;;;;;;27.83;12.93;;;8.50;99.90;;;;;;4897387;29;20203;-86
2023/01/07 12:35:02;;;;;;;29.87;14.07;;;8.50;99.90;;;;;;4897760;29;20236;-81
2023/01/07 12:37:46;;;;;;;30.00;15.17;;;8.50;99.90;;;;;;4881519;29;20260;-79
2023/01/07 12:40:16;;;;;;;32.67;16.27;;;8.40;99.90;;;;;;4896933;29;20300;-86
2023/01/07 12:42:53;;;;;;;27.27;15.40;;;8.40;99.90;;;;;;4896868;29;20192;-83
2023/01/07 12:45:28;;;;;;;25.03;14.00;;;8.20;99.90;;;;;;4897374;29;20198;-86
2023/01/07 12:48:01;;;;;;;26.30;13.90;;;8.10;99.90;;;;;;4898376;29;20218;-87
2023/01/07 12:50:39;;;;;;;27.80;14.47;;;8.10;99.90;;;;;;4898238;29;20204;-86
2023/01/07 12:53:06;;;;;;;25.80;14.93;;;8.10;99.90;;;;;;4897483;29;20665;-80
2023/01/07 12:55:37;;;;;;;25.87;13.50;;;8.10;99.90;;;;;;4880699;29;20228;-87
2023/01/07 12:58:17;;;;;;;26.00;13.60;;;8.00;99.90;;;;;;4880772;29;20314;-81
2023/01/07 13:01:17;;;;;;;27.27;14.17;;;8.10;99.90;;;;;;4896195;29;20204;-77
2023/01/07 13:03:52;;;;;;;25.70;13.63;;;8.00;99.90;;;;;;4896662;29;20235;-77
2023/01/07 13:06:35;;;;;;;21.87;12.57;;;8.00;99.90;;;;;;4932960;28;20218;-79